CNV4434 ORBI-LCLK
Flight info
| Callsign | CNV4434 |
|---|---|
| Flight time | 1h 44m |
| Altitude | 40000 |
| Route | DELMI G202 TAN R655 LEBOR UR655 BALMA M601 KOBER |
| Aircraft | B737/M-SDE2E3FGHIRWXY/LB1 |
Departure
| Time | 2026-05-07 01:28 |
|---|---|
| Airport | Baghdad International Airport / New Al Muthana Air Base (ORBI) |
Arrival
| Time | 2026-05-07 03:13 |
|---|---|
| Airport | Larnaca International Airport (LCLK) |
| Time | Latitude | Longitude | Altitude | Speed | Heading |
|---|---|---|---|---|---|
| 2026-05-07 01:07 | 33.26435 | 44.21428 | 120 ft | 0 kts | 239° |
| 2026-05-07 01:21 | 33.26432 | 44.21421 | 120 ft | 3 kts | 236° |
| 2026-05-07 01:21 | 33.26400 | 44.21432 | 120 ft | 7 kts | 111° |
| 2026-05-07 01:21 | 33.26392 | 44.21523 | 120 ft | 14 kts | 93° |
| 2026-05-07 01:21 | 33.26333 | 44.21633 | 120 ft | 18 kts | 150° |
| 2026-05-07 01:22 | 33.26222 | 44.21709 | 120 ft | 18 kts | 150° |
| 2026-05-07 01:22 | 33.26109 | 44.21787 | 120 ft | 19 kts | 150° |
| 2026-05-07 01:22 | 33.25991 | 44.21867 | 120 ft | 19 kts | 149° |
| 2026-05-07 01:22 | 33.25874 | 44.21948 | 120 ft | 19 kts | 150° |
| 2026-05-07 01:23 | 33.25753 | 44.22030 | 120 ft | 20 kts | 149° |
| 2026-05-07 01:23 | 33.25629 | 44.22115 | 120 ft | 20 kts | 150° |
| 2026-05-07 01:23 | 33.25506 | 44.22200 | 120 ft | 20 kts | 149° |
| 2026-05-07 01:23 | 33.25378 | 44.22288 | 120 ft | 21 kts | 150° |
| 2026-05-07 01:24 | 33.25251 | 44.22375 | 120 ft | 21 kts | 149° |
| 2026-05-07 01:24 | 33.25119 | 44.22466 | 120 ft | 21 kts | 150° |
| 2026-05-07 01:24 | 33.24988 | 44.22556 | 120 ft | 22 kts | 150° |
| 2026-05-07 01:24 | 33.24853 | 44.22648 | 120 ft | 22 kts | 150° |
| 2026-05-07 01:25 | 33.24715 | 44.22743 | 120 ft | 22 kts | 150° |
| 2026-05-07 01:25 | 33.24578 | 44.22836 | 120 ft | 23 kts | 149° |
| 2026-05-07 01:25 | 33.24439 | 44.22932 | 120 ft | 23 kts | 149° |
| 2026-05-07 01:25 | 33.24299 | 44.23030 | 120 ft | 23 kts | 149° |
| 2026-05-07 01:26 | 33.24175 | 44.23111 | 120 ft | 12 kts | 151° |
| 2026-05-07 01:26 | 33.24154 | 44.23169 | 120 ft | 6 kts | 59° |
| 2026-05-07 01:26 | 33.24181 | 44.23219 | 120 ft | 7 kts | 60° |
| 2026-05-07 01:26 | 33.24205 | 44.23274 | 120 ft | 7 kts | 60° |
| 2026-05-07 01:27 | 33.24235 | 44.23331 | 120 ft | 8 kts | 58° |
| 2026-05-07 01:27 | 33.24266 | 44.23391 | 120 ft | 8 kts | 57° |
| 2026-05-07 01:27 | 33.24316 | 44.23425 | 120 ft | 9 kts | 347° |
| 2026-05-07 01:27 | 33.24379 | 44.23384 | 120 ft | 14 kts | 328° |
| 2026-05-07 01:28 | 33.24649 | 44.23200 | 120 ft | 80 kts | 329° |
| 2026-05-07 01:28 | 33.25318 | 44.22740 | 120 ft | 140 kts | 330° |
| 2026-05-07 01:28 | 33.26275 | 44.22075 | 354 ft | 168 kts | 330° |
| 2026-05-07 01:28 | 33.27265 | 44.21382 | 1156 ft | 165 kts | 333° |
| 2026-05-07 01:29 | 33.28236 | 44.20722 | 1982 ft | 169 kts | 334° |
| 2026-05-07 01:29 | 33.29205 | 44.19830 | 2830 ft | 191 kts | 307° |
| 2026-05-07 01:29 | 33.29503 | 44.18247 | 3770 ft | 214 kts | 263° |
| 2026-05-07 01:29 | 33.28943 | 44.16585 | 4878 ft | 224 kts | 248° |
| 2026-05-07 01:30 | 33.28289 | 44.14881 | 5880 ft | 236 kts | 249° |
| 2026-05-07 01:30 | 33.27707 | 44.13039 | 6929 ft | 246 kts | 256° |
| 2026-05-07 01:30 | 33.27582 | 44.10981 | 7935 ft | 256 kts | 276° |
| 2026-05-07 01:30 | 33.27823 | 44.08877 | 9065 ft | 262 kts | 276° |
| 2026-05-07 01:31 | 33.28041 | 44.06734 | 10251 ft | 265 kts | 274° |
| 2026-05-07 01:31 | 33.28200 | 44.04504 | 11108 ft | 280 kts | 272° |
| 2026-05-07 01:31 | 33.28336 | 44.02160 | 11943 ft | 294 kts | 271° |
| 2026-05-07 01:31 | 33.28468 | 43.99680 | 12730 ft | 309 kts | 271° |
| 2026-05-07 01:32 | 33.28601 | 43.97092 | 13692 ft | 317 kts | 271° |
| 2026-05-07 01:32 | 33.28738 | 43.94451 | 14798 ft | 320 kts | 270° |
| 2026-05-07 01:32 | 33.28871 | 43.91824 | 15856 ft | 323 kts | 270° |
| 2026-05-07 01:32 | 33.29005 | 43.89166 | 16903 ft | 325 kts | 270° |
| 2026-05-07 01:33 | 33.29141 | 43.86452 | 17880 ft | 329 kts | 270° |
| 2026-05-07 01:33 | 33.29275 | 43.83747 | 18801 ft | 333 kts | 270° |
| 2026-05-07 01:33 | 33.29412 | 43.80980 | 19683 ft | 338 kts | 269° |
| 2026-05-07 01:33 | 33.29551 | 43.78150 | 20565 ft | 343 kts | 269° |
| 2026-05-07 01:34 | 33.29691 | 43.75287 | 21407 ft | 348 kts | 269° |
| 2026-05-07 01:34 | 33.29831 | 43.72406 | 22195 ft | 353 kts | 269° |
| 2026-05-07 01:34 | 33.29975 | 43.69436 | 23029 ft | 357 kts | 269° |
| 2026-05-07 01:34 | 33.30119 | 43.66454 | 23808 ft | 361 kts | 269° |
| 2026-05-07 01:35 | 33.30264 | 43.63472 | 24596 ft | 364 kts | 269° |
| 2026-05-07 01:35 | 33.30409 | 43.60453 | 25395 ft | 366 kts | 269° |
| 2026-05-07 01:35 | 33.30555 | 43.57384 | 26088 ft | 371 kts | 269° |
| 2026-05-07 01:35 | 33.30699 | 43.54337 | 26768 ft | 374 kts | 269° |
| 2026-05-07 01:36 | 33.30846 | 43.51223 | 27457 ft | 377 kts | 269° |
| 2026-05-07 01:36 | 33.30994 | 43.48071 | 28137 ft | 380 kts | 270° |
| 2026-05-07 01:36 | 33.31141 | 43.44915 | 28773 ft | 383 kts | 270° |
| 2026-05-07 01:36 | 33.31289 | 43.41733 | 29406 ft | 386 kts | 270° |
| 2026-05-07 01:37 | 33.31438 | 43.38512 | 30048 ft | 388 kts | 269° |
| 2026-05-07 01:37 | 33.31586 | 43.35342 | 30977 ft | 381 kts | 269° |
| 2026-05-07 01:37 | 33.31730 | 43.32243 | 31877 ft | 374 kts | 268° |
| 2026-05-07 01:37 | 33.31873 | 43.29131 | 32603 ft | 372 kts | 268° |
| 2026-05-07 01:38 | 33.32010 | 43.26074 | 33268 ft | 369 kts | 268° |
| 2026-05-07 01:38 | 33.32148 | 43.23034 | 33993 ft | 365 kts | 268° |
| 2026-05-07 01:38 | 33.32303 | 43.20013 | 34504 ft | 365 kts | 269° |
| 2026-05-07 01:38 | 33.32487 | 43.16993 | 35001 ft | 364 kts | 269° |
| 2026-05-07 01:39 | 33.32680 | 43.13960 | 35502 ft | 363 kts | 268° |
| 2026-05-07 01:39 | 33.32865 | 43.10988 | 36104 ft | 361 kts | 269° |
| 2026-05-07 01:39 | 33.33047 | 43.08015 | 36757 ft | 358 kts | 269° |
| 2026-05-07 01:39 | 33.33231 | 43.05013 | 37394 ft | 356 kts | 268° |
| 2026-05-07 01:40 | 33.33409 | 43.02073 | 37923 ft | 354 kts | 268° |
| 2026-05-07 01:40 | 33.33587 | 42.99093 | 38354 ft | 354 kts | 268° |
| 2026-05-07 01:40 | 33.33764 | 42.96137 | 38792 ft | 353 kts | 268° |
| 2026-05-07 01:40 | 33.33939 | 42.93182 | 39127 ft | 355 kts | 268° |
| 2026-05-07 01:41 | 33.34112 | 42.90243 | 39466 ft | 356 kts | 268° |
| 2026-05-07 01:41 | 33.34286 | 42.87284 | 39775 ft | 357 kts | 268° |
| 2026-05-07 01:41 | 33.34460 | 42.84320 | 40023 ft | 359 kts | 269° |
| 2026-05-07 01:42 | 33.34810 | 42.78321 | 40043 ft | 360 kts | 268° |
| 2026-05-07 01:42 | 33.35131 | 42.72333 | 40044 ft | 355 kts | 268° |
| 2026-05-07 01:43 | 33.35336 | 42.66453 | 40046 ft | 355 kts | 267° |
| 2026-05-07 01:43 | 33.35543 | 42.60512 | 40047 ft | 356 kts | 268° |
| 2026-05-07 01:44 | 33.35753 | 42.54666 | 40058 ft | 355 kts | 268° |
| 2026-05-07 01:44 | 33.35961 | 42.48759 | 40056 ft | 356 kts | 268° |
| 2026-05-07 01:45 | 33.36171 | 42.42849 | 40058 ft | 354 kts | 268° |
| 2026-05-07 01:45 | 33.36362 | 42.37332 | 40059 ft | 355 kts | 267° |
| 2026-05-07 01:46 | 33.36564 | 42.31414 | 40062 ft | 356 kts | 267° |
| 2026-05-07 01:46 | 33.36765 | 42.25529 | 40061 ft | 355 kts | 267° |
| 2026-05-07 01:47 | 33.36962 | 42.19615 | 40066 ft | 355 kts | 267° |
| 2026-05-07 01:47 | 33.37155 | 42.13751 | 40062 ft | 355 kts | 267° |
| 2026-05-07 01:48 | 33.37347 | 42.07842 | 40066 ft | 354 kts | 267° |
| 2026-05-07 01:48 | 33.37536 | 42.01934 | 40069 ft | 354 kts | 267° |
| 2026-05-07 01:49 | 33.37720 | 41.96069 | 40064 ft | 356 kts | 267° |
| 2026-05-07 01:49 | 33.37904 | 41.90144 | 40066 ft | 355 kts | 267° |
| 2026-05-07 01:50 | 33.38083 | 41.84280 | 40067 ft | 356 kts | 267° |
| 2026-05-07 01:50 | 33.38260 | 41.78377 | 40065 ft | 356 kts | 267° |
| 2026-05-07 01:51 | 33.38460 | 41.72498 | 40071 ft | 356 kts | 268° |
| 2026-05-07 01:51 | 33.38714 | 41.66571 | 40065 ft | 357 kts | 268° |
| 2026-05-07 01:52 | 33.38960 | 41.60674 | 40070 ft | 356 kts | 268° |
| 2026-05-07 01:52 | 33.39201 | 41.54768 | 40066 ft | 355 kts | 268° |
| 2026-05-07 01:53 | 33.39439 | 41.48851 | 40069 ft | 355 kts | 268° |
| 2026-05-07 01:53 | 33.39672 | 41.42976 | 40070 ft | 356 kts | 268° |
| 2026-05-07 01:54 | 33.39903 | 41.37065 | 40070 ft | 358 kts | 268° |
| 2026-05-07 01:54 | 33.40134 | 41.31117 | 40068 ft | 357 kts | 267° |
| 2026-05-07 01:55 | 33.40361 | 41.25201 | 40071 ft | 355 kts | 268° |
| 2026-05-07 01:55 | 33.40582 | 41.19315 | 40074 ft | 357 kts | 268° |
| 2026-05-07 01:56 | 33.40804 | 41.13388 | 40069 ft | 357 kts | 267° |
| 2026-05-07 01:56 | 33.41021 | 41.07455 | 40070 ft | 358 kts | 267° |
| 2026-05-07 01:57 | 33.41238 | 41.01530 | 40071 ft | 358 kts | 267° |
| 2026-05-07 01:57 | 33.41449 | 40.95598 | 40077 ft | 357 kts | 267° |
| 2026-05-07 01:58 | 33.41660 | 40.89639 | 40072 ft | 356 kts | 268° |
| 2026-05-07 01:58 | 33.41867 | 40.83718 | 40070 ft | 357 kts | 267° |
| 2026-05-07 01:59 | 33.42071 | 40.77766 | 40069 ft | 357 kts | 268° |
| 2026-05-07 01:59 | 33.42271 | 40.71859 | 40073 ft | 356 kts | 267° |
| 2026-05-07 02:00 | 33.42468 | 40.65942 | 40070 ft | 357 kts | 268° |
| 2026-05-07 02:00 | 33.42662 | 40.60035 | 40070 ft | 357 kts | 268° |
| 2026-05-07 02:01 | 33.42856 | 40.54095 | 40071 ft | 357 kts | 268° |
| 2026-05-07 02:01 | 33.43045 | 40.48172 | 40074 ft | 357 kts | 268° |
| 2026-05-07 02:02 | 33.43232 | 40.42245 | 40069 ft | 356 kts | 267° |
| 2026-05-07 02:02 | 33.43415 | 40.36298 | 40070 ft | 357 kts | 268° |
| 2026-05-07 02:03 | 33.43598 | 40.30343 | 40067 ft | 357 kts | 267° |
| 2026-05-07 02:03 | 33.43776 | 40.24422 | 40071 ft | 358 kts | 267° |
| 2026-05-07 02:04 | 33.43953 | 40.18450 | 40072 ft | 358 kts | 267° |
| 2026-05-07 02:04 | 33.44125 | 40.12512 | 40065 ft | 360 kts | 267° |
| 2026-05-07 02:05 | 33.44297 | 40.06504 | 40076 ft | 358 kts | 267° |
| 2026-05-07 02:05 | 33.44465 | 40.00562 | 40079 ft | 358 kts | 267° |
| 2026-05-07 02:06 | 33.44629 | 39.94631 | 40081 ft | 358 kts | 268° |
| 2026-05-07 02:06 | 33.44792 | 39.88680 | 40086 ft | 359 kts | 267° |
| 2026-05-07 02:07 | 33.44952 | 39.82699 | 40087 ft | 359 kts | 267° |
| 2026-05-07 02:07 | 33.45185 | 39.73774 | 40088 ft | 358 kts | 267° |
| 2026-05-07 02:08 | 33.45337 | 39.67803 | 40094 ft | 359 kts | 267° |
| 2026-05-07 02:08 | 33.45487 | 39.61817 | 40091 ft | 359 kts | 268° |
| 2026-05-07 02:09 | 33.45633 | 39.55892 | 40087 ft | 359 kts | 268° |
| 2026-05-07 02:09 | 33.45777 | 39.49934 | 40091 ft | 357 kts | 267° |
| 2026-05-07 02:10 | 33.45917 | 39.43995 | 40094 ft | 358 kts | 268° |
| 2026-05-07 02:10 | 33.46055 | 39.38039 | 40093 ft | 359 kts | 268° |
| 2026-05-07 02:11 | 33.46191 | 39.32061 | 40086 ft | 359 kts | 267° |
| 2026-05-07 02:11 | 33.46323 | 39.26115 | 40092 ft | 359 kts | 267° |
| 2026-05-07 02:12 | 33.46453 | 39.20166 | 40086 ft | 358 kts | 267° |
| 2026-05-07 02:12 | 33.46579 | 39.14217 | 40088 ft | 359 kts | 267° |
| 2026-05-07 02:13 | 33.46702 | 39.08225 | 40091 ft | 360 kts | 267° |
| 2026-05-07 02:13 | 33.46823 | 39.02261 | 40087 ft | 360 kts | 267° |
| 2026-05-07 02:14 | 33.47028 | 38.96271 | 40086 ft | 360 kts | 268° |
| 2026-05-07 02:14 | 33.47281 | 38.90283 | 40088 ft | 360 kts | 268° |
| 2026-05-07 02:15 | 33.47519 | 38.84265 | 40088 ft | 361 kts | 269° |
| 2026-05-07 02:15 | 33.47753 | 38.78287 | 40083 ft | 361 kts | 268° |
| 2026-05-07 02:16 | 33.47982 | 38.72289 | 40086 ft | 360 kts | 269° |
| 2026-05-07 02:16 | 33.48579 | 38.66331 | 40088 ft | 366 kts | 279° |
| 2026-05-07 02:17 | 33.50777 | 38.60654 | 40086 ft | 381 kts | 294° |
| 2026-05-07 02:17 | 33.53630 | 38.55302 | 40079 ft | 383 kts | 295° |
| 2026-05-07 02:18 | 33.56506 | 38.49966 | 40083 ft | 380 kts | 295° |
| 2026-05-07 02:18 | 33.59358 | 38.44636 | 40087 ft | 380 kts | 295° |
| 2026-05-07 02:19 | 33.62216 | 38.39278 | 40090 ft | 380 kts | 295° |
| 2026-05-07 02:19 | 33.65061 | 38.33931 | 40094 ft | 380 kts | 295° |
| 2026-05-07 02:20 | 33.67914 | 38.28559 | 40098 ft | 380 kts | 295° |
| 2026-05-07 02:20 | 33.70755 | 38.23202 | 40089 ft | 381 kts | 295° |
| 2026-05-07 02:21 | 33.73615 | 38.17802 | 40098 ft | 381 kts | 295° |
| 2026-05-07 02:21 | 33.76456 | 38.12427 | 40095 ft | 380 kts | 295° |
| 2026-05-07 02:22 | 33.79305 | 38.07032 | 40106 ft | 380 kts | 295° |
| 2026-05-07 02:22 | 33.82128 | 38.01675 | 40098 ft | 382 kts | 295° |
| 2026-05-07 02:23 | 33.84976 | 37.96266 | 40108 ft | 381 kts | 295° |
| 2026-05-07 02:23 | 33.87809 | 37.90875 | 40097 ft | 382 kts | 295° |
| 2026-05-07 02:24 | 33.90644 | 37.85473 | 40090 ft | 382 kts | 295° |
| 2026-05-07 02:24 | 33.93476 | 37.80066 | 40094 ft | 382 kts | 295° |
| 2026-05-07 02:25 | 33.96307 | 37.74658 | 40096 ft | 381 kts | 296° |
| 2026-05-07 02:25 | 33.99122 | 37.69267 | 40097 ft | 382 kts | 296° |
| 2026-05-07 02:26 | 34.01953 | 37.63841 | 40099 ft | 382 kts | 295° |
| 2026-05-07 02:26 | 34.04754 | 37.58464 | 40093 ft | 381 kts | 295° |
| 2026-05-07 02:27 | 34.07579 | 37.53028 | 40098 ft | 381 kts | 296° |
| 2026-05-07 02:27 | 34.10371 | 37.47650 | 40096 ft | 381 kts | 296° |
| 2026-05-07 02:28 | 34.13186 | 37.42217 | 40097 ft | 382 kts | 296° |
| 2026-05-07 02:28 | 34.16010 | 37.36761 | 40098 ft | 384 kts | 296° |
| 2026-05-07 02:29 | 34.18835 | 37.31299 | 40097 ft | 381 kts | 295° |
| 2026-05-07 02:29 | 34.21027 | 37.25578 | 40096 ft | 372 kts | 282° |
| 2026-05-07 02:30 | 34.21916 | 37.19490 | 40094 ft | 368 kts | 272° |
| 2026-05-07 02:30 | 34.22384 | 37.13356 | 40099 ft | 368 kts | 272° |
| 2026-05-07 02:31 | 34.22854 | 37.07239 | 40096 ft | 368 kts | 272° |
| 2026-05-07 02:31 | 34.23331 | 37.01063 | 40096 ft | 369 kts | 272° |
| 2026-05-07 02:32 | 34.23804 | 36.94921 | 40096 ft | 369 kts | 272° |
| 2026-05-07 02:32 | 34.24279 | 36.88736 | 40097 ft | 368 kts | 272° |
| 2026-05-07 02:33 | 34.24751 | 36.82539 | 40099 ft | 368 kts | 272° |
| 2026-05-07 02:33 | 34.25214 | 36.76429 | 40097 ft | 368 kts | 272° |
| 2026-05-07 02:34 | 34.25676 | 36.70287 | 40102 ft | 368 kts | 272° |
| 2026-05-07 02:34 | 34.26138 | 36.64110 | 40106 ft | 368 kts | 272° |
| 2026-05-07 02:35 | 34.26590 | 36.57984 | 40104 ft | 368 kts | 272° |
| 2026-05-07 02:35 | 34.26861 | 36.51786 | 40108 ft | 367 kts | 270° |
| 2026-05-07 02:36 | 34.27073 | 36.45620 | 40110 ft | 368 kts | 270° |
| 2026-05-07 02:36 | 34.27298 | 36.39442 | 40113 ft | 368 kts | 271° |
| 2026-05-07 02:37 | 34.27525 | 36.33238 | 40114 ft | 368 kts | 270° |
| 2026-05-07 02:37 | 34.27750 | 36.27076 | 40116 ft | 367 kts | 270° |
| 2026-05-07 02:38 | 34.27972 | 36.20917 | 40118 ft | 368 kts | 270° |
| 2026-05-07 02:38 | 34.28193 | 36.14723 | 40122 ft | 369 kts | 270° |
| 2026-05-07 02:39 | 34.28412 | 36.08522 | 40119 ft | 369 kts | 270° |
| 2026-05-07 02:39 | 34.28626 | 36.02350 | 40121 ft | 369 kts | 270° |
| 2026-05-07 02:40 | 34.28869 | 35.96165 | 40116 ft | 370 kts | 271° |
| 2026-05-07 02:40 | 34.29161 | 35.89920 | 40108 ft | 371 kts | 271° |
| 2026-05-07 02:41 | 34.29443 | 35.83753 | 40084 ft | 369 kts | 271° |
| 2026-05-07 02:41 | 34.29582 | 35.80664 | 39683 ft | 369 kts | 271° |
| 2026-05-07 02:41 | 34.29721 | 35.77547 | 39034 ft | 371 kts | 271° |
| 2026-05-07 02:42 | 34.29866 | 35.74446 | 38585 ft | 367 kts | 272° |
| 2026-05-07 02:42 | 34.30119 | 35.71405 | 37988 ft | 368 kts | 276° |
| 2026-05-07 02:42 | 34.30621 | 35.68388 | 37305 ft | 370 kts | 283° |
| 2026-05-07 02:42 | 34.31364 | 35.65420 | 36571 ft | 371 kts | 285° |
| 2026-05-07 02:43 | 34.32187 | 35.62451 | 35811 ft | 373 kts | 286° |
| 2026-05-07 02:43 | 34.33026 | 35.59479 | 35107 ft | 376 kts | 287° |
| 2026-05-07 02:43 | 34.33875 | 35.56484 | 34440 ft | 377 kts | 287° |
| 2026-05-07 02:43 | 34.34730 | 35.53458 | 33941 ft | 372 kts | 287° |
| 2026-05-07 02:44 | 34.35563 | 35.50504 | 33427 ft | 368 kts | 287° |
| 2026-05-07 02:44 | 34.36372 | 35.47632 | 32939 ft | 363 kts | 287° |
| 2026-05-07 02:44 | 34.37181 | 35.44755 | 32458 ft | 357 kts | 287° |
| 2026-05-07 02:44 | 34.37966 | 35.41961 | 31994 ft | 352 kts | 287° |
| 2026-05-07 02:45 | 34.38750 | 35.39162 | 31530 ft | 347 kts | 287° |
| 2026-05-07 02:45 | 34.39514 | 35.36436 | 31073 ft | 342 kts | 287° |
| 2026-05-07 02:45 | 34.40271 | 35.33729 | 30623 ft | 337 kts | 287° |
| 2026-05-07 02:45 | 34.41021 | 35.31043 | 30174 ft | 333 kts | 287° |
| 2026-05-07 02:46 | 34.41759 | 35.28397 | 29734 ft | 333 kts | 287° |
| 2026-05-07 02:46 | 34.42499 | 35.25742 | 29286 ft | 336 kts | 287° |
| 2026-05-07 02:46 | 34.43248 | 35.23053 | 28834 ft | 335 kts | 287° |
| 2026-05-07 02:46 | 34.43989 | 35.20391 | 28391 ft | 330 kts | 287° |
| 2026-05-07 02:47 | 34.44708 | 35.17807 | 27957 ft | 325 kts | 287° |
| 2026-05-07 02:47 | 34.45424 | 35.15229 | 27525 ft | 320 kts | 287° |
| 2026-05-07 02:47 | 34.46129 | 35.12692 | 27105 ft | 318 kts | 287° |
| 2026-05-07 02:47 | 34.46848 | 35.10096 | 26667 ft | 325 kts | 287° |
| 2026-05-07 02:48 | 34.47556 | 35.07538 | 26234 ft | 322 kts | 287° |
| 2026-05-07 02:48 | 34.48260 | 35.04997 | 25801 ft | 317 kts | 287° |
| 2026-05-07 02:48 | 34.48966 | 35.02473 | 25345 ft | 313 kts | 288° |
| 2026-05-07 02:48 | 34.49670 | 34.99976 | 24916 ft | 309 kts | 287° |
| 2026-05-07 02:49 | 34.50347 | 34.97570 | 24512 ft | 305 kts | 288° |
| 2026-05-07 02:49 | 34.51043 | 34.95089 | 24100 ft | 311 kts | 288° |
| 2026-05-07 02:49 | 34.51738 | 34.92610 | 23685 ft | 311 kts | 288° |
| 2026-05-07 02:49 | 34.52425 | 34.90161 | 23274 ft | 306 kts | 288° |
| 2026-05-07 02:50 | 34.53104 | 34.87736 | 22872 ft | 301 kts | 288° |
| 2026-05-07 02:50 | 34.53767 | 34.85368 | 22472 ft | 296 kts | 288° |
| 2026-05-07 02:50 | 34.54427 | 34.83002 | 22076 ft | 301 kts | 288° |
| 2026-05-07 02:50 | 34.55100 | 34.80590 | 21669 ft | 304 kts | 288° |
| 2026-05-07 02:51 | 34.55777 | 34.78167 | 21269 ft | 299 kts | 288° |
| 2026-05-07 02:51 | 34.56428 | 34.75830 | 20880 ft | 294 kts | 288° |
| 2026-05-07 02:51 | 34.57084 | 34.73476 | 20488 ft | 291 kts | 288° |
| 2026-05-07 02:51 | 34.57735 | 34.71133 | 20098 ft | 297 kts | 288° |
| 2026-05-07 02:52 | 34.58387 | 34.68787 | 19701 ft | 296 kts | 288° |
| 2026-05-07 02:52 | 34.59039 | 34.66441 | 19308 ft | 291 kts | 288° |
| 2026-05-07 02:52 | 34.59686 | 34.64109 | 18927 ft | 286 kts | 289° |
| 2026-05-07 02:52 | 34.60313 | 34.61847 | 18556 ft | 284 kts | 289° |
| 2026-05-07 02:53 | 34.60950 | 34.59544 | 18170 ft | 292 kts | 289° |
| 2026-05-07 02:53 | 34.61589 | 34.57231 | 17787 ft | 288 kts | 289° |
| 2026-05-07 02:53 | 34.62223 | 34.54941 | 17408 ft | 284 kts | 289° |
| 2026-05-07 02:53 | 34.62841 | 34.52705 | 17036 ft | 279 kts | 289° |
| 2026-05-07 02:54 | 34.63466 | 34.50442 | 16661 ft | 285 kts | 289° |
| 2026-05-07 02:54 | 34.64090 | 34.48180 | 16281 ft | 286 kts | 289° |
| 2026-05-07 02:54 | 34.64720 | 34.45896 | 15902 ft | 282 kts | 289° |
| 2026-05-07 02:54 | 34.65334 | 34.43668 | 15528 ft | 278 kts | 289° |
| 2026-05-07 02:55 | 34.65941 | 34.41461 | 15163 ft | 277 kts | 289° |
| 2026-05-07 02:55 | 34.66563 | 34.39199 | 14782 ft | 283 kts | 289° |
| 2026-05-07 02:55 | 34.67188 | 34.36926 | 14404 ft | 280 kts | 289° |
| 2026-05-07 02:55 | 34.67797 | 34.34707 | 14036 ft | 275 kts | 289° |
| 2026-05-07 02:56 | 34.68397 | 34.32520 | 13675 ft | 271 kts | 289° |
| 2026-05-07 02:56 | 34.68993 | 34.30345 | 13318 ft | 273 kts | 289° |
| 2026-05-07 02:56 | 34.69601 | 34.28130 | 12949 ft | 277 kts | 289° |
| 2026-05-07 02:56 | 34.70204 | 34.25923 | 12580 ft | 274 kts | 289° |
| 2026-05-07 02:57 | 34.70792 | 34.23774 | 12221 ft | 270 kts | 289° |
| 2026-05-07 02:57 | 34.71388 | 34.21590 | 11864 ft | 271 kts | 289° |
| 2026-05-07 02:57 | 34.71989 | 34.19394 | 11489 ft | 275 kts | 289° |
| 2026-05-07 02:57 | 34.72584 | 34.17210 | 11132 ft | 271 kts | 289° |
| 2026-05-07 02:58 | 34.73170 | 34.15059 | 10741 ft | 269 kts | 289° |
| 2026-05-07 02:58 | 34.73760 | 34.12891 | 10315 ft | 268 kts | 289° |
| 2026-05-07 02:58 | 34.74084 | 34.10692 | 9954 ft | 269 kts | 271° |
| 2026-05-07 02:58 | 34.73666 | 34.08466 | 9739 ft | 275 kts | 251° |
| 2026-05-07 02:59 | 34.72941 | 34.06296 | 9348 ft | 276 kts | 250° |
| 2026-05-07 02:59 | 34.72228 | 34.04146 | 8979 ft | 273 kts | 251° |
| 2026-05-07 02:59 | 34.71522 | 34.01989 | 8617 ft | 270 kts | 251° |
| 2026-05-07 02:59 | 34.70840 | 33.99903 | 8269 ft | 268 kts | 251° |
| 2026-05-07 03:00 | 34.70148 | 33.97792 | 7923 ft | 269 kts | 251° |
| 2026-05-07 03:00 | 34.69449 | 33.95654 | 7556 ft | 273 kts | 251° |
| 2026-05-07 03:00 | 34.68755 | 33.93536 | 7207 ft | 270 kts | 251° |
| 2026-05-07 03:00 | 34.68064 | 33.91433 | 6854 ft | 268 kts | 250° |
| 2026-05-07 03:01 | 34.67374 | 33.89333 | 6505 ft | 266 kts | 251° |
| 2026-05-07 03:01 | 34.66685 | 33.87232 | 6156 ft | 271 kts | 250° |
| 2026-05-07 03:01 | 34.65988 | 33.85112 | 5802 ft | 269 kts | 250° |
| 2026-05-07 03:01 | 34.65300 | 33.83022 | 5451 ft | 266 kts | 250° |
| 2026-05-07 03:02 | 34.64616 | 33.80945 | 5108 ft | 264 kts | 250° |
| 2026-05-07 03:02 | 34.63941 | 33.78896 | 4761 ft | 262 kts | 250° |
| 2026-05-07 03:02 | 34.63269 | 33.76857 | 4424 ft | 260 kts | 250° |
| 2026-05-07 03:02 | 34.62642 | 33.74784 | 4080 ft | 260 kts | 258° |
| 2026-05-07 03:03 | 34.62627 | 33.72655 | 3998 ft | 250 kts | 285° |
| 2026-05-07 03:03 | 34.63088 | 33.70688 | 3989 ft | 237 kts | 288° |
| 2026-05-07 03:03 | 34.63519 | 33.68808 | 3987 ft | 220 kts | 288° |
| 2026-05-07 03:03 | 34.63909 | 33.67075 | 3988 ft | 212 kts | 288° |
| 2026-05-07 03:04 | 34.64307 | 33.65324 | 3753 ft | 214 kts | 288° |
| 2026-05-07 03:04 | 34.64697 | 33.63604 | 3613 ft | 208 kts | 288° |
| 2026-05-07 03:04 | 34.65075 | 33.61932 | 3528 ft | 202 kts | 288° |
| 2026-05-07 03:04 | 34.65441 | 33.60311 | 3299 ft | 198 kts | 288° |
| 2026-05-07 03:05 | 34.65805 | 33.58706 | 3031 ft | 198 kts | 288° |
| 2026-05-07 03:05 | 34.66169 | 33.57097 | 2755 ft | 197 kts | 288° |
| 2026-05-07 03:05 | 34.66532 | 33.55489 | 2488 ft | 196 kts | 288° |
| 2026-05-07 03:05 | 34.66895 | 33.53880 | 2219 ft | 196 kts | 288° |
| 2026-05-07 03:06 | 34.67347 | 33.52353 | 2017 ft | 189 kts | 303° |
| 2026-05-07 03:06 | 34.68235 | 33.51199 | 1993 ft | 190 kts | 319° |
| 2026-05-07 03:06 | 34.69196 | 33.50076 | 1990 ft | 190 kts | 317° |
| 2026-05-07 03:06 | 34.70079 | 33.49005 | 1987 ft | 166 kts | 317° |
| 2026-05-07 03:07 | 34.70913 | 33.48048 | 1975 ft | 163 kts | 327° |
| 2026-05-07 03:07 | 34.71904 | 33.47745 | 1973 ft | 137 kts | 8° |
| 2026-05-07 03:07 | 34.72786 | 33.47872 | 2008 ft | 124 kts | 5° |
| 2026-05-07 03:07 | 34.73625 | 33.47941 | 1970 ft | 117 kts | 6° |
| 2026-05-07 03:08 | 34.74418 | 33.48166 | 1991 ft | 119 kts | 20° |
| 2026-05-07 03:08 | 34.75194 | 33.48550 | 1988 ft | 120 kts | 25° |
| 2026-05-07 03:08 | 34.75928 | 33.49041 | 1995 ft | 120 kts | 32° |
| 2026-05-07 03:08 | 34.76611 | 33.49639 | 1988 ft | 120 kts | 38° |
| 2026-05-07 03:09 | 34.77259 | 33.50297 | 1991 ft | 121 kts | 40° |
| 2026-05-07 03:09 | 34.77883 | 33.50986 | 1991 ft | 121 kts | 43° |
| 2026-05-07 03:09 | 34.78503 | 33.51696 | 1987 ft | 124 kts | 43° |
| 2026-05-07 03:09 | 34.79117 | 33.52414 | 1973 ft | 119 kts | 43° |
| 2026-05-07 03:10 | 34.79705 | 33.53121 | 1852 ft | 118 kts | 44° |
| 2026-05-07 03:10 | 34.80290 | 33.53825 | 1726 ft | 119 kts | 44° |
| 2026-05-07 03:10 | 34.80890 | 33.54541 | 1555 ft | 121 kts | 44° |
| 2026-05-07 03:10 | 34.81487 | 33.55255 | 1355 ft | 120 kts | 44° |
| 2026-05-07 03:11 | 34.82066 | 33.55959 | 1222 ft | 116 kts | 44° |
| 2026-05-07 03:11 | 34.82650 | 33.56674 | 1104 ft | 119 kts | 44° |
| 2026-05-07 03:11 | 34.83235 | 33.57393 | 911 ft | 119 kts | 44° |
| 2026-05-07 03:11 | 34.83819 | 33.58110 | 716 ft | 119 kts | 44° |
| 2026-05-07 03:12 | 34.84401 | 33.58835 | 585 ft | 120 kts | 44° |
| 2026-05-07 03:12 | 34.84986 | 33.59552 | 425 ft | 120 kts | 44° |
| 2026-05-07 03:12 | 34.85582 | 33.60276 | 268 ft | 119 kts | 40° |
| 2026-05-07 03:12 | 34.86197 | 33.60958 | 108 ft | 120 kts | 43° |
| 2026-05-07 03:13 | 34.86779 | 33.61664 | 13 ft | 113 kts | 44° |
| 2026-05-07 03:13 | 34.87268 | 33.62262 | 4 ft | 73 kts | 48° |
| 2026-05-07 03:13 | 34.87514 | 33.62562 | 8 ft | 46 kts | 45° |
| 2026-05-07 03:13 | 34.87751 | 33.62859 | 11 ft | 32 kts | 45° |
| 2026-05-07 03:14 | 34.87854 | 33.62904 | 12 ft | 14 kts | 332° |
| 2026-05-07 03:14 | 34.87926 | 33.62822 | 15 ft | 13 kts | 316° |
| 2026-05-07 03:14 | 34.88055 | 33.62866 | 19 ft | 11 kts | 45° |
| 2026-05-07 03:15 | 34.88113 | 33.62938 | 18 ft | 12 kts | 45° |
| 2026-05-07 03:15 | 34.88180 | 33.63018 | 16 ft | 12 kts | 44° |
| 2026-05-07 03:15 | 34.88245 | 33.63081 | 13 ft | 11 kts | 5° |
| 2026-05-07 03:15 | 34.88306 | 33.63025 | 15 ft | 9 kts | 314° |
| 2026-05-07 03:16 | 34.88343 | 33.62976 | 19 ft | 5 kts | 301° |
| 2026-05-07 03:16 | 34.88344 | 33.62942 | 20 ft | 2 kts | 243° |
| 2026-05-07 03:16 | 34.88327 | 33.62932 | 21 ft | 3 kts | 197° |
| 2026-05-07 03:16 | 34.88308 | 33.62919 | 22 ft | 3 kts | 219° |
| 2026-05-07 03:17 | 34.88294 | 33.62904 | 22 ft | 2 kts | 226° |
| 2026-05-07 03:17 | 34.88286 | 33.62894 | 23 ft | 1 kts | 226° |
| 2026-05-07 03:17 | 34.88285 | 33.62893 | 23 ft | 0 kts | 226° |